Time;durP1;ratioP1;P1;durP2;ratioP2;P2;SDS_P1;SDS_P2;PMS_P1;PMS_P2;Temp;Humidity;BMP_temperature;BMP_pressure;BME280_temperature;BME280_humidity;BME280_pressure;Samples;Min_cycle;Max_cycle;Signal;HPM_P1;HPM_P2
2023/08/23 00:00:24;;;;;;;4.65;2.60;;;;;;;15.07;93.17;102109.13;6280260;22;20016;-78
2023/08/23 00:02:51;;;;;;;4.28;2.55;;;;;;;15.04;93.56;102109.25;6280736;22;20028;-78
2023/08/23 00:05:17;;;;;;;3.35;2.30;;;;;;;14.98;93.30;102103.69;6280032;22;20087;-78
2023/08/23 00:07:44;;;;;;;2.40;2.20;;;;;;;14.97;92.55;102102.94;6280733;22;20484;-78
2023/08/23 00:10:11;;;;;;;3.50;2.17;;;;;;;14.93;92.51;102099.63;6280900;22;20040;-78
2023/08/23 00:12:38;;;;;;;2.20;2.10;;;;;;;14.91;92.93;102103.94;6252510;22;20013;-78
2023/08/23 00:15:05;;;;;;;2.10;2.00;;;;;;;14.88;92.85;102105.56;6280880;22;20020;-78
2023/08/23 00:17:31;;;;;;;4.03;2.25;;;;;;;14.85;92.77;102109.09;6280206;22;20036;-78
2023/08/23 00:19:58;;;;;;;2.33;2.20;;;;;;;14.83;93.12;102108.03;6253213;22;20207;-78
2023/08/23 00:22:25;;;;;;;2.28;2.17;;;;;;;14.80;92.44;102098.94;6279628;22;20103;-78
2023/08/23 00:24:51;;;;;;;3.00;1.95;;;;;;;14.78;92.82;102101.34;6253724;22;20016;-78
2023/08/23 00:27:18;;;;;;;2.38;2.20;;;;;;;14.76;93.35;102090.28;6279573;22;20087;-78
2023/08/23 00:29:45;;;;;;;2.03;1.92;;;;;;;14.74;93.32;102094.59;6280615;22;20016;-78
2023/08/23 00:32:11;;;;;;;2.92;2.17;;;;;;;14.72;93.02;102099.63;6252956;22;20405;-78
2023/08/23 00:34:38;;;;;;;5.30;2.17;;;;;;;14.66;93.28;102094.06;6252268;22;20434;-78
2023/08/23 00:37:06;;;;;;;3.53;2.08;;;;;;;14.62;93.32;102094.19;6280472;22;20012;-78
2023/08/23 00:39:33;;;;;;;2.45;2.25;;;;;;;14.59;93.23;102089.72;6252321;22;20016;-78
2023/08/23 00:42:00;;;;;;;4.68;1.98;;;;;;;14.58;93.10;102090.13;6252637;22;20110;-78
2023/08/23 00:44:26;;;;;;;2.33;2.13;;;;;;;14.56;93.79;102089.81;6227184;22;20030;-78
2023/08/23 00:46:54;;;;;;;2.25;1.92;;;;;;;14.54;93.63;102076.09;6280862;22;20022;-78
2023/08/23 00:49:21;;;;;;;4.15;2.05;;;;;;;14.52;94.10;102076.53;6252012;22;20439;-78
2023/08/23 00:51:49;;;;;;;3.30;2.20;;;;;;;14.49;93.88;102071.28;6280470;22;20021;-78
2023/08/23 00:54:17;;;;;;;2.45;2.30;;;;;;;14.45;93.63;102076.78;6252858;22;20020;-78
2023/08/23 00:56:45;;;;;;;2.30;2.17;;;;;;;14.43;93.65;102075.72;6247701;22;20425;-78
2023/08/23 00:59:12;;;;;;;2.22;2.13;;;;;;;14.41;93.62;102070.00;6247926;22;20023;-78
2023/08/23 01:01:39;;;;;;;5.13;2.17;;;;;;;14.40;93.37;102068.50;6249349;22;20013;-78
2023/08/23 01:04:05;;;;;;;2.00;1.90;;;;;;;14.34;93.12;102058.38;6247889;22;20035;-78
2023/08/23 01:06:53;;;;;;;4.68;2.60;;;;;;;14.33;93.81;102056.88;6247152;22;20025;-77
2023/08/23 01:09:38;;;;;;;5.18;2.22;;;;;;;14.31;93.70;102053.13;6247519;22;20095;-77
2023/08/23 01:12:16;;;;;;;2.20;2.10;;;;;;;14.29;93.47;102048.19;6249239;22;20052;-77
2023/08/23 01:15:07;;;;;;;2.38;2.17;;;;;;;14.28;93.52;102054.75;6249658;22;20032;-77
2023/08/23 01:17:41;;;;;;;6.63;2.53;;;;;;;14.21;93.86;102052.28;6248790;22;20088;-77
2023/08/23 01:20:11;;;;;;;2.03;1.90;;;;;;;14.20;94.19;102058.06;6247876;22;20027;-77
2023/08/23 01:22:45;;;;;;;2.13;1.90;;;;;;;14.14;94.09;102054.44;6247116;22;20021;-77
2023/08/23 01:25:13;;;;;;;2.15;2.03;;;;;;;14.13;94.61;102060.97;6248744;22;20094;-77
2023/08/23 01:27:40;;;;;;;2.53;2.33;;;;;;;14.11;94.73;102061.41;6247055;22;20430;-77
2023/08/23 01:30:24;;;;;;;3.75;1.98;;;;;;;14.09;94.07;102066.44;6248757;22;20032;-76
2023/08/23 01:32:58;;;;;;;2.50;2.10;;;;;;;14.08;94.18;102072.97;6247584;22;20017;-77
2023/08/23 01:35:54;;;;;;;2.20;2.00;;;;;;;14.05;94.43;102070.41;6247150;22;20410;-77
2023/08/23 01:38:22;;;;;;;2.50;2.25;;;;;;;13.99;95.23;102075.59;6236396;22;20027;-77
2023/08/23 01:40:50;;;;;;;3.17;2.00;;;;;;;13.98;95.15;102068.72;6247022;22;20082;-77
2023/08/23 01:43:17;;;;;;;3.50;2.28;;;;;;;13.99;95.33;102067.56;6247394;22;20024;-77
2023/08/23 01:45:44;;;;;;;2.13;2.03;;;;;;;13.97;96.24;102067.22;6249252;22;20075;-77
2023/08/23 01:48:11;;;;;;;3.45;2.33;;;;;;;13.96;96.29;102065.75;6247601;22;20021;-77
2023/08/23 01:50:39;;;;;;;4.13;2.13;;;;;;;13.91;96.60;102068.94;6248564;22;20611;-78
2023/08/23 01:53:06;;;;;;;3.85;2.33;;;;;;;13.90;96.84;102062.84;6247369;22;20447;-77
2023/08/23 01:55:33;;;;;;;2.67;2.22;;;;;;;13.89;97.20;102055.25;6252085;22;20020;-77
2023/08/23 01:57:59;;;;;;;2.03;1.92;;;;;;;13.87;97.13;102057.59;6252661;22;20472;-77
2023/08/23 02:00:26;;;;;;;3.40;1.90;;;;;;;13.84;97.24;102059.22;6252039;22;20020;-77
2023/08/23 02:02:53;;;;;;;2.33;2.22;;;;;;;13.81;97.03;102056.66;6227721;22;20082;-77
2023/08/23 02:05:20;;;;;;;2.22;2.08;;;;;;;13.83;96.92;102051.59;6279276;22;20540;-77
2023/08/23 02:07:47;;;;;;;2.10;1.90;;;;;;;13.84;96.93;102051.19;6254038;22;20017;-77
2023/08/23 02:10:14;;;;;;;2.17;1.85;;;;;;;13.84;97.31;102053.84;6280568;22;20039;-77
2023/08/23 02:12:40;;;;;;;2.15;1.98;;;;;;;13.78;97.64;102055.56;6253670;22;20508;-77
2023/08/23 02:15:07;;;;;;;2.20;2.00;;;;;;;13.73;97.85;102048.06;6254039;22;20075;-77
2023/08/23 02:17:34;;;;;;;2.17;2.08;;;;;;;13.71;97.75;102047.75;6280813;22;20012;-77
2023/08/23 02:20:00;;;;;;;2.38;2.10;;;;;;;13.67;97.46;102047.13;6254738;22;20020;-77
2023/08/23 02:22:27;;;;;;;1.92;1.83;;;;;;;13.66;97.69;102049.03;6280151;22;20067;-77
2023/08/23 02:24:54;;;;;;;2.00;1.85;;;;;;;13.65;97.21;102041.44;6253560;22;20031;-77
2023/08/23 02:27:23;;;;;;;1.95;1.85;;;;;;;13.62;97.21;102037.69;6280692;22;20012;-77
2023/08/23 02:29:51;;;;;;;1.88;1.80;;;;;;;13.62;98.02;102042.28;6281721;22;20016;-77
2023/08/23 02:32:17;;;;;;;5.03;2.13;;;;;;;13.57;97.54;102040.94;6281529;22;20083;-77
2023/08/23 02:34:44;;;;;;;1.90;1.80;;;;;;;13.55;98.14;102034.50;6254272;22;20054;-76
2023/08/23 02:37:12;;;;;;;5.30;2.10;;;;;;;13.54;97.93;102024.97;6253870;22;20023;-77
2023/08/23 02:39:39;;;;;;;6.63;2.38;;;;;;;13.50;98.19;102027.00;6281170;22;20012;-77
2023/08/23 02:42:06;;;;;;;2.30;2.15;;;;;;;13.52;98.30;102027.34;6281892;22;20043;-76
2023/08/23 02:44:32;;;;;;;2.85;1.83;;;;;;;13.51;98.10;102034.59;6281101;22;20095;-77
2023/08/23 02:46:59;;;;;;;5.47;2.15;;;;;;;13.48;98.22;102029.38;6254900;22;20442;-76
2023/08/23 02:49:26;;;;;;;2.22;2.03;;;;;;;13.47;98.52;102023.25;6281120;22;20022;-76
2023/08/23 02:51:53;;;;;;;4.30;2.03;;;;;;;13.47;98.36;102031.28;6228361;22;20457;-76
2023/08/23 02:54:19;;;;;;;2.53;2.33;;;;;;;13.46;98.73;102040.50;6253607;22;20027;-76
2023/08/23 02:56:46;;;;;;;2.60;1.85;;;;;;;13.45;98.95;102036.31;6281027;22;20513;-76
2023/08/23 02:59:13;;;;;;;2.38;2.17;;;;;;;13.43;99.44;102025.28;6254789;22;20051;-76
2023/08/23 03:01:39;;;;;;;2.35;2.17;;;;;;;13.44;99.79;102024.13;6280962;22;20044;-76
2023/08/23 03:04:06;;;;;;;6.03;1.80;;;;;;;13.46;99.19;102027.13;6281903;22;20024;-77
2023/08/23 03:06:32;;;;;;;2.10;2.00;;;;;;;13.47;99.72;102017.91;6253540;22;20019;-76
2023/08/23 03:08:59;;;;;;;2.03;1.90;;;;;;;13.47;99.63;102017.91;6281489;22;20016;-76
2023/08/23 03:11:26;;;;;;;3.63;1.80;;;;;;;13.49;99.31;102012.88;6253352;22;20060;-76
2023/08/23 03:13:52;;;;;;;5.35;2.28;;;;;;;13.49;98.92;102015.56;6254121;22;20454;-76
2023/08/23 03:16:19;;;;;;;3.60;2.30;;;;;;;13.51;99.68;102015.13;6252966;22;20013;-76
2023/08/23 03:18:46;;;;;;;2.10;2.00;;;;;;;13.50;100.00;102009.03;6281038;22;20473;-76
2023/08/23 03:21:12;;;;;;;2.00;1.90;;;;;;;13.48;100.00;102021.34;6253411;22;20464;-76
2023/08/23 03:23:39;;;;;;;2.35;2.20;;;;;;;13.46;99.89;102011.06;6253000;22;20028;-76
2023/08/23 03:26:07;;;;;;;2.38;1.90;;;;;;;13.44;99.85;102012.66;6253508;22;20027;-77
2023/08/23 03:28:34;;;;;;;1.95;1.85;;;;;;;13.41;99.72;102011.59;6252820;22;20115;-77
2023/08/23 03:31:05;;;;;;;2.17;2.08;;;;;;;13.38;99.43;102012.44;6253362;22;20390;-77
2023/08/23 03:33:31;;;;;;;4.03;2.10;;;;;;;13.35;99.70;102021.31;6253333;22;20028;-77
2023/08/23 03:35:59;;;;;;;2.35;2.20;;;;;;;13.35;99.98;102015.97;6253099;22;20020;-77
2023/08/23 03:38:27;;;;;;;3.25;2.17;;;;;;;13.30;100.00;102014.59;6227933;22;20086;-77
2023/08/23 03:40:53;;;;;;;2.50;1.83;;;;;;;13.27;99.91;102012.75;6253418;22;20025;-77
2023/08/23 03:43:20;;;;;;;2.08;1.83;;;;;;;13.28;100.00;102021.53;6252812;22;20055;-78
2023/08/23 03:45:47;;;;;;;2.13;1.92;;;;;;;13.28;99.96;102013.50;6253325;22;20016;-78
2023/08/23 03:48:15;;;;;;;2.00;1.80;;;;;;;13.29;99.94;102017.69;6253845;22;20020;-78
2023/08/23 03:50:42;;;;;;;2.30;2.10;;;;;;;13.26;100.00;102023.88;6252213;22;20023;-77
2023/08/23 03:53:09;;;;;;;2.55;2.00;;;;;;;13.25;99.25;102014.34;6253405;22;20028;-77
2023/08/23 03:55:37;;;;;;;2.47;2.22;;;;;;;13.23;99.71;102008.69;6249980;22;20381;-78
2023/08/23 03:58:04;;;;;;;2.20;2.10;;;;;;;13.17;99.66;102013.84;6253376;22;20027;-77
2023/08/23 04:00:32;;;;;;;2.40;1.90;;;;;;;13.15;99.46;102015.41;6252620;22;20012;-77
2023/08/23 04:03:01;;;;;;;2.22;2.03;;;;;;;13.15;99.28;102021.50;6280888;22;20031;-77
2023/08/23 04:05:28;;;;;;;2.90;2.20;;;;;;;13.16;99.04;102022.28;6279645;22;20095;-77
2023/08/23 04:07:55;;;;;;;2.25;2.15;;;;;;;13.17;99.48;102021.88;6280715;22;20485;-77
2023/08/23 04:10:22;;;;;;;2.20;2.10;;;;;;;13.14;99.14;102024.59;6279920;22;20103;-76
2023/08/23 04:12:49;;;;;;;2.35;2.10;;;;;;;13.13;98.97;102028.47;6280809;22;20027;-77
2023/08/23 04:15:15;;;;;;;2.50;2.30;;;;;;;13.10;98.70;102035.41;6280727;22;20413;-77
2023/08/23 04:17:42;;;;;;;2.35;2.25;;;;;;;13.10;98.37;102027.38;6252904;22;20016;-77
2023/08/23 04:20:10;;;;;;;2.30;2.05;;;;;;;13.10;98.74;102023.97;6280205;22;20032;-78
2023/08/23 04:22:36;;;;;;;2.72;2.08;;;;;;;13.09;98.44;102027.81;6279994;22;20438;-77
2023/08/23 04:25:05;;;;;;;4.20;1.90;;;;;;;13.09;98.59;102027.81;6252919;22;20103;-76
2023/08/23 04:27:31;;;;;;;2.30;2.13;;;;;;;13.07;98.65;102030.16;6279968;22;20079;-76
2023/08/23 04:29:58;;;;;;;3.38;2.00;;;;;;;13.07;98.92;102033.56;6252729;22;20020;-77
2023/08/23 04:32:25;;;;;;;2.75;2.20;;;;;;;13.07;98.92;102027.47;6279767;22;20075;-76
2023/08/23 04:34:52;;;;;;;2.33;2.13;;;;;;;13.04;98.96;102034.41;6252843;22;20457;-76
2023/08/23 04:37:19;;;;;;;3.75;1.70;;;;;;;13.06;98.92;102031.31;6280261;22;20438;-76
2023/08/23 04:39:47;;;;;;;5.68;2.05;;;;;;;13.03;98.93;102035.59;6280649;22;20058;-76
2023/08/23 04:42:13;;;;;;;1.92;1.83;;;;;;;13.05;99.49;102035.16;6280082;22;20101;-77
2023/08/23 04:44:40;;;;;;;3.58;2.10;;;;;;;13.04;99.42;102037.09;6279457;22;20016;-77
2023/08/23 04:47:06;;;;;;;3.42;2.13;;;;;;;13.03;99.01;102033.66;6280708;22;20090;-77
2023/08/23 04:49:33;;;;;;;2.50;2.00;;;;;;;13.05;99.77;102035.91;6251679;22;20020;-77
2023/08/23 04:52:00;;;;;;;2.30;2.20;;;;;;;13.06;99.88;102034.00;6253212;22;20024;-76
2023/08/23 04:54:26;;;;;;;2.92;2.20;;;;;;;13.07;99.44;102027.47;6252746;22;20067;-76
2023/08/23 04:56:53;;;;;;;2.17;2.08;;;;;;;13.08;99.93;102023.63;6253059;22;20458;-77
2023/08/23 04:59:20;;;;;;;2.50;2.38;;;;;;;13.09;100.00;102020.53;6252666;22;20070;-77
2023/08/23 05:01:46;;;;;;;2.33;2.22;;;;;;;13.13;100.00;102017.75;6253125;22;20027;-77
2023/08/23 05:04:16;;;;;;;4.20;2.50;;;;;;;13.15;100.00;102028.78;6252391;22;20091;-77
2023/08/23 05:06:42;;;;;;;2.55;2.45;;;;;;;13.17;100.00;102024.53;6252747;22;20027;-76
2023/08/23 05:09:09;;;;;;;3.17;2.97;;;;;;;13.20;100.00;102025.59;6252919;22;20476;-77
2023/08/23 05:11:36;;;;;;;3.55;2.40;;;;;;;13.22;100.00;102015.22;6279854;22;20016;-78
2023/08/23 05:14:02;;;;;;;4.70;2.78;;;;;;;13.26;100.00;102013.19;6280403;22;20017;-78
2023/08/23 05:16:29;;;;;;;2.70;2.50;;;;;;;13.27;100.00;102017.34;6251589;22;20016;-78
2023/08/23 05:18:56;;;;;;;2.90;2.70;;;;;;;13.25;100.00;102017.03;6253185;22;20023;-78
2023/08/23 05:21:22;;;;;;;4.18;2.90;;;;;;;13.26;100.00;102016.59;6279609;22;20466;-78
2023/08/23 05:23:50;;;;;;;2.65;2.45;;;;;;;13.29;100.00;102017.69;6280216;22;20438;-78
2023/08/23 05:26:17;;;;;;;5.40;2.92;;;;;;;13.36;100.00;102012.13;6252239;22;20016;-78
2023/08/23 05:28:45;;;;;;;7.15;3.30;;;;;;;13.42;100.00;102009.69;6227611;22;20012;-78
2023/08/23 05:31:12;;;;;;;5.97;3.88;;;;;;;13.51;100.00;102013.22;6252317;22;20499;-77
2023/08/23 05:33:39;;;;;;;4.63;4.07;;;;;;;13.62;100.00;102016.28;6251889;22;20016;-78
2023/08/23 05:36:07;;;;;;;7.07;4.10;;;;;;;13.67;100.00;102023.78;6280100;22;20067;-79
2023/08/23 05:38:34;;;;;;;7.28;3.90;;;;;;;14.32;100.00;102023.22;6279547;22;20059;-79
2023/08/23 05:41:02;;;;;;;5.72;4.25;;;;;;;16.37;91.20;102013.19;6228380;22;20020;-77
2023/08/23 05:43:29;;;;;;;8.93;5.03;;;;;;;17.97;82.65;102025.53;6280618;22;20009;-76
2023/08/23 05:45:56;;;;;;;10.02;5.10;;;;;;;19.23;75.31;102028.66;6280795;22;20082;-78
2023/08/23 05:48:23;;;;;;;6.10;5.50;;;;;;;20.22;70.02;102030.44;6253218;22;20026;-77
2023/08/23 05:50:50;;;;;;;7.13;5.10;;;;;;;20.93;66.91;102020.78;6281509;22;20458;-77
2023/08/23 05:53:20;;;;;;;6.38;5.50;;;;;;;21.56;64.42;102026.13;6281547;22;20016;-77
2023/08/23 05:55:48;;;;;;;6.93;6.28;;;;;;;21.95;62.78;102026.28;6280675;22;20023;-77
2023/08/23 05:58:18;;;;;;;10.18;6.88;;;;;;;22.34;61.90;102029.13;6281296;22;20018;-77
2023/08/23 06:00:46;;;;;;;7.57;6.85;;;;;;;22.65;60.84;102030.88;6253422;22;20464;-76
2023/08/23 06:03:14;;;;;;;12.27;7.40;;;;;;;22.76;59.55;102028.19;6281524;22;20103;-76
2023/08/23 06:05:42;;;;;;;7.65;6.78;;;;;;;22.99;58.52;102039.03;6280416;22;20050;-76
2023/08/23 06:08:08;;;;;;;6.05;5.45;;;;;;;23.07;58.95;102031.88;6281377;22;20390;-77
2023/08/23 06:10:36;;;;;;;8.07;7.13;;;;;;;23.26;58.66;102036.28;6280717;22;20023;-76
2023/08/23 06:13:03;;;;;;;8.98;8.07;;;;;;;23.35;58.87;102026.38;6254262;22;20017;-77
2023/08/23 06:15:29;;;;;;;8.52;7.63;;;;;;;23.16;59.67;102018.78;6280171;22;20016;-76
2023/08/23 06:17:56;;;;;;;9.85;7.68;;;;;;;22.86;60.66;102025.97;6254124;22;20107;-76
2023/08/23 06:20:23;;;;;;;11.65;7.97;;;;;;;22.39;62.70;102024.94;6280398;22;20020;-77
2023/08/23 06:22:50;;;;;;;11.07;7.65;;;;;;;22.07;64.02;102027.81;6281306;22;20099;-76
2023/08/23 06:25:16;;;;;;;15.60;8.57;;;;;;;21.61;65.68;102028.84;6281129;22;20799;-76
2023/08/23 06:27:44;;;;;;;10.18;8.38;;;;;;;21.19;67.68;102029.56;6253834;22;20078;-80
2023/08/23 06:30:15;;;;;;;11.63;8.15;;;;;;;20.80;70.10;102039.38;6280368;22;20036;-78
2023/08/23 06:32:45;;;;;;;14.80;8.75;;;;;;;20.70;71.09;102049.63;6252359;22;20405;-78
2023/08/23 06:35:16;;;;;;;9.68;8.20;;;;;;;20.50;72.89;102047.72;6281114;22;20079;-77
2023/08/23 06:37:43;;;;;;;11.23;8.60;;;;;;;20.40;74.34;102051.06;6254045;22;20020;-76
2023/08/23 06:40:12;;;;;;;11.32;8.07;;;;;;;20.44;74.93;102052.31;6281143;22;20091;-76
2023/08/23 06:42:39;;;;;;;9.02;7.85;;;;;;;20.48;74.95;102052.13;6280530;22;20446;-75
2023/08/23 06:45:06;;;;;;;13.40;8.32;;;;;;;20.29;76.14;102049.72;6280559;22;20027;-76
2023/08/23 06:47:33;;;;;;;10.73;8.30;;;;;;;20.13;77.77;102046.81;6280369;22;20012;-76
2023/08/23 06:50:00;;;;;;;9.85;8.05;;;;;;;20.15;77.83;102055.19;6281366;22;20021;-76
2023/08/23 06:52:27;;;;;;;8.50;7.68;;;;;;;20.23;78.63;102050.88;6280345;22;20020;-81
2023/08/23 06:54:53;;;;;;;14.32;7.85;;;;;;;20.24;77.68;102057.75;6253761;22;20438;-85
2023/08/23 06:57:28;;;;;;;10.25;7.72;;;;;;;20.20;78.48;102057.22;6252911;22;20470;-82
2023/08/23 06:59:58;;;;;;;9.95;7.75;;;;;;;20.19;78.83;102056.47;6280582;22;20462;-81
2023/08/23 07:02:25;;;;;;;7.95;7.05;;;;;;;20.16;79.35;102060.13;6280429;22;20023;-80
2023/08/23 07:04:52;;;;;;;9.38;7.28;;;;;;;20.24;80.32;102061.19;6254224;22;20027;-81
2023/08/23 07:07:20;;;;;;;8.85;6.68;;;;;;;20.34;79.46;102058.34;6280774;22;20430;-82
2023/08/23 07:09:48;;;;;;;8.77;6.75;;;;;;;20.35;80.38;102051.72;6280903;22;20020;-83
2023/08/23 07:12:15;;;;;;;8.73;7.32;;;;;;;20.40;80.20;102054.50;6253566;22;20043;-83
2023/08/23 07:14:41;;;;;;;11.77;7.28;;;;;;;20.37;80.74;102058.16;6279987;22;20504;-82
2023/08/23 07:17:08;;;;;;;6.95;6.20;;;;;;;20.50;81.35;102069.34;6280769;22;20394;-82
2023/08/23 07:19:35;;;;;;;11.55;6.95;;;;;;;20.58;81.20;102064.28;6280355;22;20047;-83
2023/08/23 07:22:03;;;;;;;9.95;6.10;;;;;;;20.65;80.15;102069.28;6281232;22;20346;-81
2023/08/23 07:24:31;;;;;;;6.22;5.60;;;;;;;20.74;79.59;102069.13;6280316;22;20422;-82
2023/08/23 07:26:58;;;;;;;5.53;5.03;;;;;;;20.75;80.21;102072.56;6252998;22;20012;-83
2023/08/23 07:29:24;;;;;;;6.90;4.57;;;;;;;20.86;79.86;102064.53;6254295;22;20024;-84
2023/08/23 07:31:51;;;;;;;6.57;4.22;;;;;;;20.98;78.55;102066.84;6283101;22;20082;-86
2023/08/23 07:34:18;;;;;;;4.45;3.40;;;;;;;21.13;78.19;102061.31;6254790;22;20505;-83
2023/08/23 07:36:45;;;;;;;3.90;3.60;;;;;;;21.25;77.50;102062.88;6281064;22;20083;-83
2023/08/23 07:39:11;;;;;;;5.75;3.33;;;;;;;21.43;77.54;102064.47;6281018;22;20095;-83
2023/08/23 07:41:38;;;;;;;5.45;3.28;;;;;;;21.57;76.98;102063.59;6280845;22;20047;-83
2023/08/23 07:44:04;;;;;;;4.10;3.20;;;;;;;21.64;74.48;102065.06;6280926;22;20450;-83
2023/08/23 07:46:31;;;;;;;4.28;3.08;;;;;;;21.59;74.61;102058.41;6253291;22;20087;-83
2023/08/23 07:48:58;;;;;;;3.40;3.10;;;;;;;21.68;74.31;102064.84;6280900;22;20020;-83
2023/08/23 07:51:24;;;;;;;8.25;3.80;;;;;;;21.76;73.11;102066.63;6280175;22;20081;-82
2023/08/23 07:53:51;;;;;;;3.22;2.92;;;;;;;21.92;74.06;102065.97;6281251;22;20012;-83
2023/08/23 07:56:17;;;;;;;4.78;3.20;;;;;;;22.05;73.56;102068.25;6279228;22;20012;-83
2023/08/23 07:58:44;;;;;;;5.40;3.83;;;;;;;22.20;71.78;102070.75;6281055;22;20047;-84
2023/08/23 08:01:11;;;;;;;4.40;4.00;;;;;;;22.34;72.47;102069.09;6281281;22;20450;-83
2023/08/23 08:03:39;;;;;;;6.13;3.55;;;;;;;22.43;72.94;102072.28;6280046;22;20012;-85
2023/08/23 08:06:06;;;;;;;3.83;3.53;;;;;;;22.58;71.77;102074.78;6281161;22;20020;-85
2023/08/23 08:08:33;;;;;;;5.95;3.60;;;;;;;22.68;70.89;102080.72;6280170;22;20024;-85
2023/08/23 08:10:59;;;;;;;4.28;3.88;;;;;;;22.80;69.67;102074.81;6282935;22;20458;-86
2023/08/23 08:13:26;;;;;;;4.57;3.67;;;;;;;22.86;71.44;102080.25;6254821;22;20044;-84
2023/08/23 08:15:54;;;;;;;8.13;4.18;;;;;;;23.11;69.66;102090.16;6255780;22;20059;-80
2023/08/23 08:18:21;;;;;;;4.88;4.20;;;;;;;23.21;68.92;102083.19;6253131;22;20365;-78
2023/08/23 08:20:48;;;;;;;4.53;3.47;;;;;;;23.32;68.58;102079.00;6280654;22;20140;-78
2023/08/23 08:23:15;;;;;;;5.95;3.20;;;;;;;23.36;67.61;102082.94;6280858;22;20442;-78
2023/08/23 08:25:42;;;;;;;6.38;2.85;;;;;;;23.50;65.71;102081.94;6279343;22;20070;-77
2023/08/23 08:28:08;;;;;;;3.38;2.85;;;;;;;23.60;65.43;102085.88;6280608;22;20016;-78
2023/08/23 08:30:35;;;;;;;3.25;2.72;;;;;;;23.66;65.00;102096.00;6252954;22;20022;-78
2023/08/23 08:33:01;;;;;;;3.55;2.70;;;;;;;23.79;63.80;102101.66;6280720;22;20066;-77
2023/08/23 08:35:28;;;;;;;2.75;2.55;;;;;;;23.87;64.59;102094.44;6279951;22;20016;-78
2023/08/23 08:37:55;;;;;;;3.70;2.67;;;;;;;24.02;63.40;102097.59;6280628;22;20016;-77
2023/08/23 08:40:22;;;;;;;5.60;2.40;;;;;;;24.01;61.83;102087.94;6279168;22;20023;-77
2023/08/23 08:42:49;;;;;;;4.90;2.72;;;;;;;24.10;61.32;102101.25;6253728;22;20012;-77
2023/08/23 08:45:16;;;;;;;2.90;2.20;;;;;;;24.22;61.89;102093.78;6280378;22;20028;-76
2023/08/23 08:47:43;;;;;;;8.30;2.55;;;;;;;24.37;60.91;102102.41;6280257;22;20016;-76
2023/08/23 08:50:09;;;;;;;5.57;2.40;;;;;;;24.54;61.95;102105.75;6280721;22;20012;-77
2023/08/23 08:52:43;;;;;;;7.75;2.20;;;;;;;24.57;60.66;102095.84;6279855;22;20083;-77
2023/08/23 08:55:11;;;;;;;6.47;2.53;;;;;;;24.59;58.58;102096.06;6252583;22;20078;-77
2023/08/23 08:57:39;;;;;;;5.55;2.63;;;;;;;24.60;59.23;102092.09;6279378;22;20352;-78
2023/08/23 09:00:07;;;;;;;3.60;3.30;;;;;;;24.55;59.23;102090.16;6280524;22;20016;-77
2023/08/23 09:02:35;;;;;;;6.03;2.70;;;;;;;24.65;59.35;102088.59;6279900;22;20016;-76
2023/08/23 09:05:05;;;;;;;3.92;2.70;;;;;;;24.83;58.29;102087.22;6253361;22;20024;-76
2023/08/23 09:07:32;;;;;;;6.38;2.80;;;;;;;24.93;58.66;102085.66;6252127;22;20028;-77
2023/08/23 09:09:58;;;;;;;4.28;2.33;;;;;;;25.09;58.42;102082.09;6279993;22;20454;-77
2023/08/23 09:12:25;;;;;;;8.85;2.50;;;;;;;25.18;57.49;102086.47;6279941;22;20040;-77
2023/08/23 09:14:51;;;;;;;8.65;2.75;;;;;;;25.30;56.58;102090.53;6253135;22;20409;-77
2023/08/23 09:17:25;;;;;;;10.35;3.05;;;;;;;25.45;57.81;102092.88;6280256;22;20399;-77
2023/08/23 09:19:52;;;;;;;3.33;2.70;;;;;;;25.51;57.48;102090.84;6280364;22;20012;-78
2023/08/23 09:22:21;;;;;;;3.88;2.20;;;;;;;25.74;55.97;102099.53;6279645;22;20016;-77
2023/08/23 09:24:48;;;;;;;2.60;2.40;;;;;;;25.79;56.12;102101.44;6279813;22;20100;-77
2023/08/23 09:27:15;;;;;;;4.35;2.60;;;;;;;25.83;55.88;102099.91;6280586;22;20020;-77
2023/08/23 09:30:04;;;;;;;6.85;2.50;;;;;;;26.00;55.75;102104.41;6280223;22;20016;-77
2023/08/23 09:32:30;;;;;;;3.53;3.03;;;;;;;26.04;54.08;102097.41;6279672;22;20017;-79
2023/08/23 09:34:57;;;;;;;4.22;2.70;;;;;;;26.01;54.40;102098.44;6280327;22;20051;-77
2023/08/23 09:37:27;;;;;;;5.78;2.75;;;;;;;26.10;54.98;102087.16;6278914;22;20047;-77
2023/08/23 09:39:53;;;;;;;3.65;2.50;;;;;;;26.21;54.26;102087.00;6253064;22;20378;-77
2023/08/23 09:42:20;;;;;;;5.82;2.30;;;;;;;26.32;54.65;102090.88;6279415;22;20063;-77
2023/08/23 09:44:48;;;;;;;3.17;2.50;;;;;;;26.34;52.94;102089.09;6279967;22;20012;-78
2023/08/23 09:47:21;;;;;;;8.48;4.07;;;;;;;26.50;54.21;102090.84;6280239;22;20429;-77
2023/08/23 09:49:48;;;;;;;3.20;2.30;;;;;;;26.57;53.20;102084.78;6280305;22;20019;-76
2023/08/23 09:52:15;;;;;;;2.95;2.33;;;;;;;26.67;52.81;102081.66;6279305;22;20020;-76
2023/08/23 09:54:59;;;;;;;6.60;2.22;;;;;;;26.77;52.08;102077.28;6251802;22;20020;-76
2023/08/23 09:57:41;;;;;;;5.65;2.80;;;;;;;26.70;51.98;102075.91;6278803;22;20016;-78
2023/08/23 10:00:08;;;;;;;3.22;2.60;;;;;;;26.62;53.28;102069.56;6279908;22;20016;-76
2023/08/23 10:02:37;;;;;;;2.95;2.17;;;;;;;26.84;51.70;102071.91;6279346;22;20016;-76
2023/08/23 10:05:06;;;;;;;5.03;2.40;;;;;;;26.94;51.90;102063.31;6280239;22;20526;-80
2023/08/23 10:07:34;;;;;;;4.97;2.78;;;;;;;27.03;51.43;102071.88;6251709;22;20020;-80
2023/08/23 10:10:03;;;;;;;2.80;2.58;;;;;;;27.01;50.65;102062.75;6279931;22;20734;-80
2023/08/23 10:12:31;;;;;;;2.38;2.17;;;;;;;27.21;51.02;102065.59;6279088;22;20509;-80
2023/08/23 10:14:59;;;;;;;4.70;2.53;;;;;;;27.27;50.53;102068.22;6252777;22;20012;-81
2023/08/23 10:17:26;;;;;;;8.02;2.70;;;;;;;27.58;51.21;102072.13;6279004;22;20051;-80
2023/08/23 10:19:53;;;;;;;5.22;2.42;;;;;;;27.70;50.25;102059.69;6252787;22;20067;-80
2023/08/23 10:22:19;;;;;;;3.70;2.05;;;;;;;27.66;48.77;102067.47;6278281;22;20016;-81
2023/08/23 10:24:49;;;;;;;3.53;2.15;;;;;;;27.69;49.70;102062.97;6279720;22;20023;-82
2023/08/23 10:27:17;;;;;;;3.67;2.20;;;;;;;27.79;49.63;102064.00;6280699;22;20043;-82
2023/08/23 10:29:50;;;;;;;6.38;2.53;;;;;;;27.89;49.25;102062.28;6254359;22;20022;-82
2023/08/23 10:32:18;;;;;;;2.50;2.30;;;;;;;27.81;47.52;102058.72;6253873;22;20035;-76
2023/08/23 10:34:44;;;;;;;5.00;1.92;;;;;;;27.90;47.96;102061.03;6254275;22;20460;-77
2023/08/23 10:37:16;;;;;;;2.40;2.00;;;;;;;27.97;49.93;102059.66;6280659;22;20016;-77
2023/08/23 10:40:09;;;;;;;4.10;2.65;;;;;;;28.01;48.04;102060.03;6280753;22;20012;-78
2023/08/23 10:42:35;;;;;;;2.75;2.10;;;;;;;28.02;47.54;102051.28;6273904;22;20026;-82
2023/08/23 10:45:05;;;;;;;6.03;2.80;;;;;;;27.91;46.85;102056.28;6280979;22;20013;-82
2023/08/23 10:47:36;;;;;;;4.88;2.30;;;;;;;27.65;48.20;102046.88;6280524;22;20031;-81
2023/08/23 10:50:04;;;;;;;2.88;2.67;;;;;;;27.63;46.99;102046.66;6280914;22;20051;-79
2023/08/23 10:52:30;;;;;;;2.60;2.40;;;;;;;27.39;48.61;102050.34;6253348;22;20024;-81
2023/08/23 10:54:57;;;;;;;5.97;2.92;;;;;;;27.60;48.28;102039.50;6281310;22;20012;-78
2023/08/23 10:57:24;;;;;;;4.78;2.45;;;;;;;27.86;47.84;102041.47;6280193;22;20051;-80
2023/08/23 10:59:50;;;;;;;2.53;2.30;;;;;;;28.03;48.05;102044.56;6281046;22;20421;-79
2023/08/23 11:02:17;;;;;;;3.00;2.70;;;;;;;28.13;47.22;102039.38;6280823;22;20457;-78
2023/08/23 11:04:44;;;;;;;7.80;3.20;;;;;;;27.93;46.93;102034.59;6280982;22;20012;-80
2023/08/23 11:07:11;;;;;;;4.30;2.88;;;;;;;27.87;48.05;102026.53;6281092;22;20450;-79
2023/08/23 11:09:37;;;;;;;7.85;2.60;;;;;;;28.14;46.92;102025.16;6280498;22;20019;-80
2023/08/23 11:12:05;;;;;;;3.17;2.67;;;;;;;28.47;47.23;102020.16;6281104;22;20022;-81
2023/08/23 11:14:31;;;;;;;2.85;2.60;;;;;;;28.54;46.64;102019.50;6280072;22;20425;-81
2023/08/23 11:16:58;;;;;;;5.82;3.13;;;;;;;28.58;46.82;102019.16;6281053;22;20016;-86
2023/08/23 11:19:25;;;;;;;5.93;3.60;;;;;;;28.35;47.62;102021.72;6252896;22;20012;-79
2023/08/23 11:21:51;;;;;;;4.53;3.40;;;;;;;28.45;47.59;102028.91;6281166;22;20387;-77
2023/08/23 11:24:18;;;;;;;4.22;3.80;;;;;;;28.39;45.95;102030.34;6281066;22;20016;-77
2023/08/23 11:26:45;;;;;;;3.55;3.20;;;;;;;28.23;46.37;102028.72;6280912;22;20024;-77